Time;durP1;ratioP1;P1;durP2;ratioP2;P2;SDS_P1;SDS_P2;PMS_P1;PMS_P2;Temp;Humidity;BMP_temperature;BMP_pressure;BME280_temperature;BME280_humidity;BME280_pressure;Samples;Min_cycle;Max_cycle;Signal;HPM_P1;HPM_P2
2024/01/06 00:01:26;;;;;;;34.53;26.67;;;3.30;99.90;;;;;;7368207;19;20023;-73
2024/01/06 00:03:52;;;;;;;25.58;19.95;;;3.30;99.90;;;;;;7371820;19;20118;-73
2024/01/06 00:06:18;;;;;;;26.40;18.77;;;3.20;99.90;;;;;;7369698;19;20374;-63
2024/01/06 00:08:45;;;;;;;24.15;18.48;;;3.20;99.90;;;;;;7368408;19;20134;-63
2024/01/06 00:11:11;;;;;;;24.65;18.17;;;3.20;99.90;;;;;;7372466;19;20020;-74
2024/01/06 00:13:41;;;;;;;24.50;19.70;;;3.10;99.90;;;;;;7372387;19;20018;-63
2024/01/06 00:16:27;;;;;;;27.90;21.98;;;3.10;99.90;;;;;;7369385;19;20022;-63
2024/01/06 00:18:53;;;;;;;23.52;18.85;;;3.10;99.90;;;;;;7372414;19;20026;-63
2024/01/06 00:21:20;;;;;;;21.52;16.85;;;3.10;99.90;;;;;;7368633;19;20027;-63
2024/01/06 00:23:46;;;;;;;20.27;16.50;;;3.00;99.90;;;;;;7370011;19;20062;-63
2024/01/06 00:26:12;;;;;;;20.98;15.20;;;3.00;99.90;;;;;;7372503;19;20339;-63
2024/01/06 00:28:39;;;;;;;24.33;17.88;;;3.00;99.90;;;;;;7368138;19;20014;-63
2024/01/06 00:31:06;;;;;;;21.95;18.27;;;3.00;99.90;;;;;;7371793;19;20022;-62
2024/01/06 00:33:32;;;;;;;27.63;21.95;;;3.00;99.90;;;;;;7366273;19;20033;-73
2024/01/06 00:35:59;;;;;;;37.45;29.85;;;3.00;99.90;;;;;;7369575;19;20025;-74
2024/01/06 00:38:26;;;;;;;29.83;23.00;;;2.90;99.90;;;;;;7367663;19;20046;-73
2024/01/06 00:40:52;;;;;;;31.02;22.88;;;3.00;99.90;;;;;;7367113;19;20934;-73
2024/01/06 00:43:18;;;;;;;34.80;25.27;;;2.90;99.90;;;;;;7367028;19;20014;-63
2024/01/06 00:45:44;;;;;;;33.05;23.98;;;2.90;99.90;;;;;;7369254;19;20063;-63
2024/01/06 00:48:11;;;;;;;31.13;22.50;;;3.00;99.90;;;;;;7370334;19;20078;-73
2024/01/06 00:50:37;;;;;;;33.22;24.00;;;2.90;99.90;;;;;;7371160;19;20642;-73
2024/01/06 00:53:04;;;;;;;30.95;22.25;;;3.00;99.90;;;;;;7370775;19;20015;-63
2024/01/06 00:55:30;;;;;;;35.60;23.58;;;2.90;99.90;;;;;;7368643;19;20022;-63
2024/01/06 00:57:56;;;;;;;34.05;23.42;;;3.00;99.90;;;;;;7366949;19;20033;-63
2024/01/06 01:00:22;;;;;;;35.20;23.75;;;3.00;99.90;;;;;;7369187;19;20019;-63
2024/01/06 01:02:49;;;;;;;35.65;24.00;;;3.00;99.90;;;;;;7368821;19;20039;-63
2024/01/06 01:05:16;;;;;;;34.85;24.50;;;3.00;99.90;;;;;;7378895;19;20021;-73
2024/01/06 01:07:42;;;;;;;38.58;26.42;;;3.00;99.90;;;;;;7374445;19;20018;-73
2024/01/06 01:10:09;;;;;;;33.33;22.60;;;3.00;99.90;;;;;;7376176;19;20471;-73
2024/01/06 01:12:36;;;;;;;31.15;22.30;;;3.00;99.90;;;;;;7377310;19;20102;-73
2024/01/06 01:15:03;;;;;;;34.85;22.23;;;3.00;99.90;;;;;;7368292;19;20360;-74
2024/01/06 01:17:30;;;;;;;34.45;24.67;;;3.00;99.90;;;;;;7366680;19;20110;-73
2024/01/06 01:19:57;;;;;;;32.42;23.20;;;2.90;99.90;;;;;;7378192;19;20019;-73
2024/01/06 01:22:23;;;;;;;28.08;20.48;;;2.90;99.90;;;;;;7373057;19;20087;-63
2024/01/06 01:24:49;;;;;;;29.40;20.70;;;2.90;99.90;;;;;;7379647;19;20887;-63
2024/01/06 01:27:15;;;;;;;30.80;19.95;;;2.90;99.90;;;;;;7373559;19;20490;-73
2024/01/06 01:29:42;;;;;;;28.30;18.83;;;2.90;99.90;;;;;;7376536;19;20103;-63
2024/01/06 01:32:08;;;;;;;26.08;19.05;;;2.80;99.90;;;;;;7376375;19;20478;-63
2024/01/06 01:34:34;;;;;;;27.00;19.23;;;2.80;99.90;;;;;;7374102;19;20022;-63
2024/01/06 01:37:02;;;;;;;26.83;19.60;;;2.80;99.90;;;;;;7374728;19;20011;-64
2024/01/06 01:39:28;;;;;;;30.02;21.13;;;2.80;99.90;;;;;;7374075;19;20022;-63
2024/01/06 01:41:55;;;;;;;27.00;19.17;;;2.90;99.90;;;;;;7371491;19;20482;-73
2024/01/06 01:44:21;;;;;;;32.80;23.48;;;2.80;99.90;;;;;;7373396;19;20018;-73
2024/01/06 01:46:48;;;;;;;28.05;19.40;;;2.80;99.90;;;;;;7378086;19;20011;-74
2024/01/06 01:49:15;;;;;;;32.33;20.38;;;2.80;99.90;;;;;;7375059;19;20070;-73
2024/01/06 01:51:44;;;;;;;28.88;20.83;;;2.80;99.90;;;;;;7374702;19;20030;-63
2024/01/06 01:54:10;;;;;;;34.22;23.17;;;2.80;99.90;;;;;;7369446;19;20134;-73
2024/01/06 01:56:38;;;;;;;31.75;22.10;;;2.80;99.90;;;;;;7373865;19;20824;-63
2024/01/06 01:59:14;;;;;;;32.75;22.92;;;2.80;99.90;;;;;;7376404;19;20019;-73
2024/01/06 02:01:40;;;;;;;32.00;23.15;;;2.70;99.90;;;;;;7366384;19;20023;-64
2024/01/06 02:04:08;;;;;;;35.72;24.75;;;2.70;99.90;;;;;;7375748;19;20038;-63
2024/01/06 02:06:34;;;;;;;33.70;24.25;;;2.70;99.90;;;;;;7376763;19;20018;-63
2024/01/06 02:09:01;;;;;;;38.13;24.17;;;2.70;99.90;;;;;;7378512;19;20010;-73
2024/01/06 02:11:28;;;;;;;35.65;24.67;;;2.70;99.90;;;;;;7369128;19;20026;-64
2024/01/06 02:13:54;;;;;;;35.45;24.45;;;2.70;99.90;;;;;;7373612;19;20027;-63
2024/01/06 02:16:20;;;;;;;35.97;25.30;;;2.70;99.90;;;;;;7370341;19;20038;-63
2024/01/06 02:18:46;;;;;;;38.25;25.10;;;2.70;99.90;;;;;;7377876;19;20077;-73
2024/01/06 02:21:14;;;;;;;39.05;24.92;;;2.70;99.90;;;;;;7373443;19;20036;-73
2024/01/06 02:23:40;;;;;;;37.58;24.20;;;2.70;99.90;;;;;;7373117;19;20125;-63
2024/01/06 02:26:06;;;;;;;38.88;24.85;;;2.80;99.90;;;;;;7368232;19;20081;-63
2024/01/06 02:28:32;;;;;;;38.15;25.67;;;2.70;99.90;;;;;;7371657;19;20014;-73
2024/01/06 02:30:58;;;;;;;29.52;19.90;;;2.70;99.90;;;;;;7374070;19;20078;-73
2024/01/06 02:33:25;;;;;;;28.95;20.90;;;2.70;99.90;;;;;;7371589;19;20022;-63
2024/01/06 02:35:51;;;;;;;26.17;19.25;;;2.60;99.90;;;;;;7375348;19;20078;-73
2024/01/06 02:38:18;;;;;;;29.63;19.15;;;2.60;99.90;;;;;;7371609;19;20109;-73
2024/01/06 02:40:44;;;;;;;31.60;21.17;;;2.60;99.90;;;;;;7368676;19;20019;-73
2024/01/06 02:43:10;;;;;;;29.23;20.85;;;2.50;99.90;;;;;;7372720;19;20470;-73
2024/01/06 02:45:37;;;;;;;27.80;20.10;;;2.60;99.90;;;;;;7372689;19;20304;-73
2024/01/06 02:48:03;;;;;;;24.88;18.48;;;2.50;99.90;;;;;;7373643;19;20022;-73
2024/01/06 02:50:30;;;;;;;25.40;18.25;;;2.50;99.90;;;;;;7372764;19;20024;-63
2024/01/06 02:52:56;;;;;;;26.42;19.83;;;2.50;99.90;;;;;;7375394;19;20033;-63
2024/01/06 02:55:22;;;;;;;28.25;21.38;;;2.40;99.90;;;;;;7370574;19;20099;-64
2024/01/06 02:57:48;;;;;;;29.60;21.70;;;2.40;99.90;;;;;;7374375;19;20029;-63
2024/01/06 03:00:15;;;;;;;32.83;21.83;;;2.50;99.90;;;;;;7370387;19;20130;-62
2024/01/06 03:02:42;;;;;;;28.90;19.92;;;2.40;99.90;;;;;;7372318;19;20063;-62
2024/01/06 03:05:10;;;;;;;30.83;20.65;;;2.40;99.90;;;;;;7375745;19;20019;-63
2024/01/06 03:07:36;;;;;;;32.70;21.63;;;2.40;99.90;;;;;;7372785;19;20468;-63
2024/01/06 03:10:03;;;;;;;36.67;22.85;;;2.50;99.90;;;;;;7371447;19;20823;-63
2024/01/06 03:12:30;;;;;;;34.47;22.77;;;2.40;99.90;;;;;;7374791;19;20022;-63
2024/01/06 03:14:56;;;;;;;37.85;23.55;;;2.40;99.90;;;;;;7372763;19;20023;-62
2024/01/06 03:17:22;;;;;;;37.63;23.52;;;2.50;99.90;;;;;;7375312;19;20089;-63
2024/01/06 03:19:48;;;;;;;36.25;24.00;;;2.40;99.90;;;;;;7370534;19;20064;-63
2024/01/06 03:22:14;;;;;;;38.90;24.20;;;2.40;99.90;;;;;;7372765;19;20026;-63
2024/01/06 03:24:40;;;;;;;36.45;24.70;;;2.40;99.90;;;;;;7375718;19;20030;-73
2024/01/06 03:27:08;;;;;;;36.83;25.02;;;2.40;99.90;;;;;;7372271;19;20022;-73
2024/01/06 03:29:54;;;;;;;43.78;27.52;;;2.40;99.90;;;;;;7374565;19;20864;-63
2024/01/06 03:32:21;;;;;;;37.97;24.05;;;2.40;99.90;;;;;;7372523;19;20549;-62
2024/01/06 03:34:47;;;;;;;41.15;24.30;;;2.30;99.90;;;;;;7372661;19;20480;-63
2024/01/06 03:37:14;;;;;;;42.63;25.77;;;2.30;99.90;;;;;;7374298;19;20022;-73
2024/01/06 03:39:40;;;;;;;42.22;24.60;;;2.30;99.90;;;;;;7371344;19;20085;-73
2024/01/06 03:42:09;;;;;;;44.28;26.25;;;2.40;99.90;;;;;;7374287;19;20014;-73
2024/01/06 03:44:36;;;;;;;46.70;27.60;;;2.40;99.90;;;;;;7369774;19;20739;-73
2024/01/06 03:47:02;;;;;;;41.47;26.00;;;2.30;99.90;;;;;;7369417;19;20801;-73
2024/01/06 03:49:29;;;;;;;37.33;23.88;;;2.30;99.90;;;;;;7371103;19;20021;-73
2024/01/06 03:51:55;;;;;;;34.22;22.00;;;2.30;99.90;;;;;;7373616;19;20534;-63
2024/01/06 03:54:21;;;;;;;40.05;22.88;;;2.30;99.90;;;;;;7372329;19;20304;-63
2024/01/06 03:56:47;;;;;;;39.80;24.27;;;2.30;99.90;;;;;;7372992;19;20114;-63
2024/01/06 03:59:13;;;;;;;42.60;24.33;;;2.30;99.90;;;;;;7372379;19;20744;-63
2024/01/06 04:01:39;;;;;;;43.65;25.23;;;2.20;99.90;;;;;;7369368;19;20025;-63
2024/01/06 04:04:25;;;;;;;43.63;25.45;;;2.30;99.90;;;;;;7371596;19;20019;-63
2024/01/06 04:07:12;;;;;;;40.75;23.95;;;2.20;99.90;;;;;;7371478;19;20015;-63
2024/01/06 04:09:41;;;;;;;41.35;24.40;;;2.20;99.90;;;;;;7369985;19;20817;-63
2024/01/06 04:12:07;;;;;;;41.05;24.88;;;2.30;99.90;;;;;;7375315;19;20018;-63
2024/01/06 04:14:34;;;;;;;35.83;24.27;;;2.20;99.90;;;;;;7370327;19;20082;-73
2024/01/06 04:17:00;;;;;;;36.33;24.20;;;2.20;99.90;;;;;;7370860;19;20102;-73
2024/01/06 04:19:26;;;;;;;42.20;25.88;;;2.20;99.90;;;;;;7367658;19;20018;-74
2024/01/06 04:21:52;;;;;;;41.85;23.98;;;2.20;99.90;;;;;;7369713;19;20015;-74
2024/01/06 04:24:19;;;;;;;44.45;26.70;;;2.20;99.90;;;;;;7367675;19;20087;-73
2024/01/06 04:26:45;;;;;;;42.55;25.90;;;2.10;99.90;;;;;;7370290;19;20043;-74
2024/01/06 04:29:12;;;;;;;40.15;24.83;;;2.20;99.90;;;;;;7370113;19;20505;-73
2024/01/06 04:31:38;;;;;;;41.22;24.70;;;2.20;99.90;;;;;;7367868;19;20018;-73
2024/01/06 04:34:04;;;;;;;41.55;25.08;;;2.10;99.90;;;;;;7369111;19;20029;-73
2024/01/06 04:36:30;;;;;;;43.92;25.80;;;2.10;99.90;;;;;;7368893;19;20030;-73
2024/01/06 04:38:57;;;;;;;38.85;25.48;;;2.10;99.90;;;;;;7370568;19;20824;-65
2024/01/06 04:41:24;;;;;;;35.80;24.48;;;2.10;99.90;;;;;;7375401;19;20098;-63
2024/01/06 04:43:50;;;;;;;44.17;25.55;;;2.10;99.90;;;;;;7372926;19;20026;-63
2024/01/06 04:46:16;;;;;;;36.58;24.63;;;2.10;99.90;;;;;;7377381;19;20855;-63
2024/01/06 04:48:43;;;;;;;45.13;24.35;;;2.10;99.90;;;;;;7373032;19;20074;-63
2024/01/06 04:51:11;;;;;;;36.20;22.88;;;2.10;99.90;;;;;;7375735;19;20506;-63
2024/01/06 04:53:38;;;;;;;38.50;22.90;;;2.10;99.90;;;;;;7372857;19;20029;-63
2024/01/06 04:56:04;;;;;;;37.65;24.25;;;2.10;99.90;;;;;;7375009;19;20029;-63
2024/01/06 04:58:31;;;;;;;40.75;23.75;;;2.10;99.90;;;;;;7372830;19;20851;-63
2024/01/06 05:00:57;;;;;;;35.50;23.08;;;2.10;99.90;;;;;;7374103;19;20019;-63
2024/01/06 05:03:26;;;;;;;45.78;24.27;;;2.10;99.90;;;;;;7374686;19;20015;-63
2024/01/06 05:05:52;;;;;;;43.75;25.08;;;2.10;99.90;;;;;;7374083;19;20018;-63
2024/01/06 05:08:44;;;;;;;37.97;24.85;;;2.00;99.90;;;;;;7372561;19;20025;-63
2024/01/06 05:11:12;;;;;;;41.55;24.33;;;2.10;99.90;;;;;;7377542;19;20057;-63
2024/01/06 05:13:38;;;;;;;38.97;23.27;;;2.10;99.90;;;;;;7377300;19;20034;-63
2024/01/06 05:16:04;;;;;;;41.92;22.70;;;2.20;99.90;;;;;;7376612;19;20073;-63
2024/01/06 05:18:30;;;;;;;37.75;22.55;;;2.20;99.90;;;;;;7372873;19;20037;-63
2024/01/06 05:20:57;;;;;;;40.95;22.58;;;2.10;99.90;;;;;;7372474;19;20022;-64
2024/01/06 05:23:23;;;;;;;36.72;24.10;;;2.10;99.90;;;;;;7370798;19;20019;-63
2024/01/06 05:25:49;;;;;;;34.70;21.52;;;2.10;99.90;;;;;;7377283;19;20078;-63
2024/01/06 05:28:15;;;;;;;32.63;20.83;;;2.10;99.90;;;;;;7374757;19;20015;-63
2024/01/06 05:30:42;;;;;;;32.65;21.00;;;2.10;99.90;;;;;;7373004;19;20018;-63
2024/01/06 05:33:15;;;;;;;33.92;21.30;;;2.10;99.90;;;;;;7372958;19;20045;-63
2024/01/06 05:35:41;;;;;;;37.10;20.67;;;2.10;99.90;;;;;;7376580;19;20022;-63
2024/01/06 05:38:07;;;;;;;33.63;21.98;;;2.00;99.90;;;;;;7377300;19;20022;-63
2024/01/06 05:40:34;;;;;;;33.00;21.30;;;2.10;99.90;;;;;;7369778;19;20018;-63
2024/01/06 05:43:20;;;;;;;35.20;22.30;;;2.10;99.90;;;;;;7372434;19;20013;-63
2024/01/06 05:45:47;;;;;;;37.05;22.20;;;2.10;99.90;;;;;;7374236;19;20474;-63
2024/01/06 05:48:13;;;;;;;35.78;20.85;;;2.10;99.90;;;;;;7377544;19;20358;-63
2024/01/06 05:50:40;;;;;;;31.65;19.90;;;2.00;99.90;;;;;;7371072;19;20018;-63
2024/01/06 05:53:07;;;;;;;31.95;20.67;;;2.00;99.90;;;;;;7374513;19;20026;-63
2024/01/06 05:55:33;;;;;;;34.55;20.52;;;2.00;99.90;;;;;;7371488;19;20018;-63
2024/01/06 05:58:00;;;;;;;31.85;20.88;;;2.00;99.90;;;;;;7372933;19;20377;-63
2024/01/06 06:00:27;;;;;;;32.08;21.10;;;2.00;99.90;;;;;;7371457;19;20017;-63
2024/01/06 06:02:53;;;;;;;29.80;20.10;;;2.00;99.90;;;;;;7372874;19;20064;-63
2024/01/06 06:05:20;;;;;;;30.10;20.77;;;1.90;99.90;;;;;;7369785;19;20048;-63
2024/01/06 06:07:46;;;;;;;29.45;20.52;;;1.90;99.90;;;;;;7375422;19;20018;-63
2024/01/06 06:10:12;;;;;;;32.10;21.17;;;1.90;99.90;;;;;;7375509;19;20066;-65
2024/01/06 06:12:39;;;;;;;34.08;21.35;;;1.90;99.90;;;;;;7371717;19;20508;-63
2024/01/06 06:15:08;;;;;;;28.70;21.45;;;1.90;99.90;;;;;;7372495;19;20014;-63
2024/01/06 06:17:36;;;;;;;30.15;21.63;;;1.90;99.90;;;;;;7367462;19;20026;-63
2024/01/06 06:20:03;;;;;;;31.95;22.15;;;1.80;99.90;;;;;;7373323;19;20025;-63
2024/01/06 06:22:32;;;;;;;33.65;21.58;;;1.90;99.90;;;;;;7369900;19;20098;-63
2024/01/06 06:24:59;;;;;;;37.65;21.83;;;1.90;99.90;;;;;;7372439;19;20102;-63
2024/01/06 06:27:45;;;;;;;34.95;21.08;;;1.90;99.90;;;;;;7372830;19;20015;-63
2024/01/06 06:30:12;;;;;;;36.00;22.55;;;1.90;99.90;;;;;;7371748;19;20026;-74
2024/01/06 06:32:38;;;;;;;38.47;21.63;;;1.90;99.90;;;;;;7368974;19;20093;-64
2024/01/06 06:35:05;;;;;;;38.22;21.63;;;1.90;99.90;;;;;;7374824;19;20018;-63
2024/01/06 06:37:31;;;;;;;36.60;21.27;;;1.90;99.90;;;;;;7370015;19;20645;-73
2024/01/06 06:39:57;;;;;;;38.38;21.70;;;1.90;99.90;;;;;;7372710;19;20782;-74
2024/01/06 06:42:23;;;;;;;31.98;21.38;;;1.80;99.90;;;;;;7370051;19;20019;-73
2024/01/06 06:44:50;;;;;;;32.22;21.85;;;1.90;99.90;;;;;;7373934;19;20040;-74
2024/01/06 06:47:17;;;;;;;34.00;21.85;;;1.80;99.90;;;;;;7370792;19;20737;-73
2024/01/06 06:49:43;;;;;;;30.50;20.25;;;1.80;99.90;;;;;;7370140;19;20029;-74
2024/01/06 06:52:09;;;;;;;31.25;21.33;;;1.80;99.90;;;;;;7368764;19;20022;-63
2024/01/06 06:54:35;;;;;;;30.73;21.20;;;1.80;99.90;;;;;;7367751;19;20026;-64
2024/01/06 06:57:03;;;;;;;34.88;20.90;;;1.80;99.90;;;;;;7371924;19;20014;-63
2024/01/06 06:59:29;;;;;;;45.45;29.55;;;1.80;99.90;;;;;;7368776;19;20052;-73
2024/01/06 07:01:55;;;;;;;36.38;23.75;;;1.80;99.90;;;;;;7364611;19;20025;-63
2024/01/06 07:04:23;;;;;;;31.85;24.00;;;1.80;99.90;;;;;;7367273;19;20021;-73
2024/01/06 07:06:49;;;;;;;38.95;27.02;;;1.90;99.90;;;;;;7370890;19;20022;-63
2024/01/06 07:09:16;;;;;;;39.70;28.80;;;1.90;99.90;;;;;;7372672;19;20380;-73
2024/01/06 07:11:42;;;;;;;27.30;20.92;;;1.90;99.90;;;;;;7372520;19;20021;-63
2024/01/06 07:14:08;;;;;;;27.95;20.88;;;1.80;99.90;;;;;;7373561;19;20011;-63
2024/01/06 07:16:34;;;;;;;28.73;21.08;;;1.90;99.90;;;;;;7372565;19;20031;-72
2024/01/06 07:19:01;;;;;;;31.63;21.83;;;1.90;99.90;;;;;;7373131;19;20011;-64
2024/01/06 07:21:27;;;;;;;28.00;20.33;;;1.90;99.90;;;;;;7368257;19;20010;-63
2024/01/06 07:23:54;;;;;;;40.53;25.27;;;1.90;99.90;;;;;;7374330;19;20018;-74
2024/01/06 07:26:20;;;;;;;57.63;41.40;;;1.90;99.90;;;;;;7372725;19;20014;-74
2024/01/06 07:28:46;;;;;;;45.80;34.75;;;1.90;99.90;;;;;;7364283;19;20035;-74
2024/01/06 07:31:12;;;;;;;41.10;28.77;;;1.90;99.90;;;;;;7372580;19;20035;-74
2024/01/06 07:33:39;;;;;;;25.58;19.55;;;1.90;99.90;;;;;;7370138;19;20010;-74
2024/01/06 07:36:06;;;;;;;43.42;31.80;;;1.90;99.90;;;;;;7370205;19;20014;-74
2024/01/06 07:38:32;;;;;;;30.42;22.17;;;1.90;99.90;;;;;;7369288;19;20014;-74
2024/01/06 07:40:58;;;;;;;26.08;19.67;;;1.90;99.90;;;;;;7369750;19;20026;-74
2024/01/06 07:43:24;;;;;;;30.38;22.75;;;1.90;99.90;;;;;;7368662;19;20010;-74
2024/01/06 07:45:51;;;;;;;29.92;23.70;;;1.90;99.90;;;;;;7372071;19;20093;-74
2024/01/06 07:48:17;;;;;;;31.25;23.80;;;1.90;99.90;;;;;;7373878;19;20019;-74
2024/01/06 07:50:43;;;;;;;34.83;25.48;;;1.90;99.90;;;;;;7367838;19;20078;-73
2024/01/06 07:53:10;;;;;;;25.23;19.55;;;1.90;99.90;;;;;;7370985;19;20022;-74
2024/01/06 07:55:36;;;;;;;26.35;18.45;;;1.90;99.90;;;;;;7371207;19;20018;-73
2024/01/06 07:58:03;;;;;;;28.95;20.65;;;1.80;99.90;;;;;;7371195;19;20119;-74
2024/01/06 08:00:31;;;;;;;28.23;22.05;;;1.80;99.90;;;;;;7367866;19;20031;-74
2024/01/06 08:02:57;;;;;;;25.48;18.90;;;1.80;99.90;;;;;;7367327;19;20052;-73
2024/01/06 08:05:23;;;;;;;30.95;24.45;;;1.80;99.90;;;;;;7368141;19;20022;-74
2024/01/06 08:07:51;;;;;;;27.67;20.75;;;1.90;99.90;;;;;;7372245;19;20589;-74
2024/01/06 08:10:18;;;;;;;30.45;21.20;;;1.80;99.90;;;;;;7372141;19;20015;-74
2024/01/06 08:12:44;;;;;;;33.53;25.48;;;1.90;99.90;;;;;;7370519;19;20078;-63
2024/01/06 08:15:10;;;;;;;26.02;18.33;;;1.90;99.90;;;;;;7380279;19;20807;-63
2024/01/06 08:17:37;;;;;;;27.25;21.48;;;1.80;99.90;;;;;;7374611;19;20018;-74
2024/01/06 08:20:03;;;;;;;40.13;29.73;;;1.80;99.90;;;;;;7380710;19;20509;-74
2024/01/06 08:22:30;;;;;;;29.38;21.30;;;1.80;99.90;;;;;;7377425;19;20025;-74
2024/01/06 08:24:56;;;;;;;20.52;16.00;;;1.80;99.90;;;;;;7381644;19;20022;-74
2024/01/06 08:27:23;;;;;;;23.00;18.08;;;1.80;99.90;;;;;;7377409;19;20149;-74
2024/01/06 08:29:50;;;;;;;22.48;17.77;;;1.90;99.90;;;;;;7377653;19;20561;-73
2024/01/06 08:32:16;;;;;;;19.55;16.50;;;1.90;99.90;;;;;;7377049;19;20047;-74
2024/01/06 08:34:42;;;;;;;41.83;31.48;;;1.90;99.90;;;;;;7375437;19;20014;-73
2024/01/06 08:37:08;;;;;;;31.80;24.50;;;1.80;99.90;;;;;;7378877;19;20094;-63
2024/01/06 08:39:35;;;;;;;27.58;21.55;;;1.90;99.90;;;;;;7374636;19;20057;-74
2024/01/06 08:42:21;;;;;;;43.20;29.25;;;1.90;99.90;;;;;;7376454;19;20042;-63
2024/01/06 08:44:47;;;;;;;32.97;23.50;;;1.90;99.90;;;;;;7374576;19;20014;-63
2024/01/06 08:47:14;;;;;;;40.22;30.58;;;1.90;99.90;;;;;;7374551;19;20028;-64
2024/01/06 08:49:40;;;;;;;32.78;25.10;;;1.90;99.90;;;;;;7377360;19;20021;-64
2024/01/06 08:52:27;;;;;;;22.13;17.35;;;1.90;99.90;;;;;;7373923;19;20113;-65
2024/01/06 08:54:53;;;;;;;23.23;17.83;;;1.90;99.90;;;;;;7378523;19;20022;-64
2024/01/06 08:57:20;;;;;;;33.92;26.58;;;1.90;99.90;;;;;;7375604;19;20026;-75
2024/01/06 08:59:47;;;;;;;19.92;15.98;;;1.90;99.90;;;;;;7376241;19;20022;-76
2024/01/06 09:02:13;;;;;;;20.88;16.10;;;1.90;99.90;;;;;;7373005;19;20022;-75
2024/01/06 09:04:39;;;;;;;22.33;15.40;;;2.00;99.90;;;;;;7376659;19;20389;-74
2024/01/06 09:07:06;;;;;;;28.10;20.52;;;2.00;99.90;;;;;;7374489;19;20018;-74
2024/01/06 09:09:32;;;;;;;19.10;16.23;;;2.00;99.90;;;;;;7376441;19;20373;-72
2024/01/06 09:11:59;;;;;;;37.50;27.15;;;1.90;99.90;;;;;;7373915;19;20022;-74
2024/01/06 09:14:26;;;;;;;272.25;204.80;;;2.00;99.90;;;;;;7376515;19;20022;-60
2024/01/06 09:16:52;;;;;;;52.83;40.67;;;2.30;99.90;;;;;;7372978;19;20020;-62
2024/01/06 09:19:18;;;;;;;31.25;22.92;;;2.50;99.90;;;;;;7378099;19;20437;-62
2024/01/06 09:21:45;;;;;;;46.22;21.60;;;2.70;99.90;;;;;;7372055;19;20114;-70
2024/01/06 09:24:11;;;;;;;138.48;31.02;;;2.80;99.90;;;;;;7376960;19;20026;-62
2024/01/06 09:26:38;;;;;;;197.43;35.65;;;3.00;99.90;;;;;;7374895;19;20014;-63
2024/01/06 09:29:04;;;;;;;19.75;16.42;;;3.00;99.90;;;;;;7377204;19;20965;-70
2024/01/06 09:31:31;;;;;;;63.95;19.50;;;3.00;99.90;;;;;;7372135;19;20011;-62
2024/01/06 09:34:03;;;;;;;20.73;15.25;;;3.10;99.90;;;;;;7377868;19;20010;-60
2024/01/06 09:36:33;;;;;;;62.63;19.63;;;3.00;99.90;;;;;;7375324;19;20647;-70
2024/01/06 09:38:59;;;;;;;16.45;13.88;;;3.00;99.90;;;;;;7374818;19;20050;-74
2024/01/06 09:41:25;;;;;;;17.08;14.48;;;2.80;99.90;;;;;;7372924;19;20026;-74
2024/01/06 09:43:51;;;;;;;18.83;15.60;;;2.60;99.90;;;;;;7373588;19;20022;-75
2024/01/06 09:46:25;;;;;;;16.80;14.93;;;2.40;99.90;;;;;;7378827;19;20411;-74
2024/01/06 09:48:54;;;;;;;16.88;14.05;;;2.30;99.90;;;;;;7371700;19;20090;-65
2024/01/06 09:51:21;;;;;;;17.75;14.32;;;2.40;99.90;;;;;;7377573;19;20010;-74
2024/01/06 09:53:59;;;;;;;17.27;14.40;;;2.30;99.90;;;;;;7373090;19;20047;-73
2024/01/06 09:56:26;;;;;;;19.85;17.58;;;2.30;99.90;;;;;;7377217;19;20074;-66
2024/01/06 09:58:52;;;;;;;38.20;28.92;;;2.30;99.90;;;;;;7374569;19;20101;-74
2024/01/06 10:01:39;;;;;;;18.52;15.27;;;2.30;99.90;;;;;;7371723;19;20022;-74
2024/01/06 10:04:05;;;;;;;24.40;19.38;;;2.30;99.90;;;;;;7377189;19;20010;-65
2024/01/06 10:06:32;;;;;;;18.88;15.88;;;2.30;99.90;;;;;;7374987;19;20030;-64
2024/01/06 10:08:59;;;;;;;18.38;15.75;;;2.40;99.90;;;;;;7373049;19;20030;-65
2024/01/06 10:11:26;;;;;;;39.58;30.83;;;2.40;99.90;;;;;;7375986;19;20452;-65
2024/01/06 10:13:54;;;;;;;24.15;20.50;;;2.40;99.90;;;;;;7376192;19;20042;-74
2024/01/06 10:16:20;;;;;;;21.88;18.25;;;2.30;99.90;;;;;;7373074;19;20014;-74
2024/01/06 10:18:46;;;;;;;18.60;15.05;;;2.40;99.90;;;;;;7372258;19;20381;-65
2024/01/06 10:21:13;;;;;;;17.90;14.38;;;2.40;99.90;;;;;;7371642;19;20014;-73
2024/01/06 10:23:42;;;;;;;18.23;15.25;;;2.30;99.90;;;;;;7371816;19;20021;-73
2024/01/06 10:26:13;;;;;;;21.25;17.60;;;2.30;99.90;;;;;;7373609;19;20014;-64
2024/01/06 10:28:41;;;;;;;20.20;17.25;;;2.30;99.90;;;;;;7371768;19;20014;-75
2024/01/06 10:31:08;;;;;;;22.40;17.95;;;2.40;99.90;;;;;;7372866;19;20480;-64
2024/01/06 10:33:35;;;;;;;25.17;20.63;;;2.40;99.90;;;;;;7373311;19;20693;-66
2024/01/06 10:36:03;;;;;;;71.53;49.08;;;2.40;99.90;;;;;;7373629;19;20021;-74
2024/01/06 10:38:29;;;;;;;26.08;21.15;;;2.40;99.90;;;;;;7370120;19;20023;-64
2024/01/06 10:41:02;;;;;;;28.05;21.98;;;2.40;99.90;;;;;;7373650;19;20019;-73
2024/01/06 10:43:29;;;;;;;28.10;22.02;;;2.50;99.90;;;;;;7371186;19;20374;-74
2024/01/06 10:45:57;;;;;;;23.52;19.38;;;2.40;99.90;;;;;;7374109;19;20019;-73
2024/01/06 10:48:31;;;;;;;38.25;28.33;;;2.40;99.90;;;;;;7374558;19;20074;-73
2024/01/06 10:50:59;;;;;;;27.02;21.23;;;2.50;99.90;;;;;;7372383;19;20023;-75
2024/01/06 10:53:27;;;;;;;18.25;16.13;;;2.40;99.90;;;;;;7373942;19;20017;-75
2024/01/06 10:55:53;;;;;;;18.85;15.60;;;2.50;99.90;;;;;;7373897;19;20786;-75
2024/01/06 10:58:21;;;;;;;19.02;15.57;;;2.50;99.90;;;;;;7375865;19;20012;-74
2024/01/06 11:00:48;;;;;;;28.20;21.73;;;2.50;99.90;;;;;;7373707;19;20019;-74
2024/01/06 11:03:15;;;;;;;19.33;16.48;;;2.50;99.90;;;;;;7374533;19;20057;-72
2024/01/06 11:05:43;;;;;;;24.23;17.77;;;2.60;99.90;;;;;;7372158;19;20019;-64
2024/01/06 11:08:10;;;;;;;23.80;20.02;;;2.60;99.90;;;;;;7370135;19;20658;-65
2024/01/06 11:10:40;;;;;;;24.38;20.05;;;2.60;99.90;;;;;;7372807;19;20583;-65
2024/01/06 11:13:11;;;;;;;28.83;22.00;;;2.60;99.90;;;;;;7372297;19;20033;-74
2024/01/06 11:15:41;;;;;;;;;;;2.50;99.90;;;;;;7368248;19;20014;-73
2024/01/06 11:18:07;;;;;;;19.70;16.33;;;2.50;99.90;;;;;;7373702;19;19922;-75
2024/01/06 11:20:34;;;;;;;27.58;21.55;;;2.40;99.90;;;;;;7369630;19;20025;-74
2024/01/06 11:23:23;;;;;;;21.65;17.33;;;2.40;99.90;;;;;;7373426;19;20047;-74
2024/01/06 11:25:49;;;;;;;21.73;17.33;;;2.40;99.90;;;;;;7372679;19;20018;-74
2024/01/06 11:28:17;;;;;;;21.45;17.27;;;2.40;99.90;;;;;;7371867;19;20027;-74
2024/01/06 11:30:43;;;;;;;17.65;15.75;;;2.40;99.90;;;;;;7372171;19;20011;-75
2024/01/06 11:33:10;;;;;;;21.67;18.08;;;2.40;99.90;;;;;;7370005;19;20010;-73
2024/01/06 11:35:39;;;;;;;21.23;18.80;;;2.30;99.90;;;;;;7371632;19;20037;-75
2024/01/06 11:38:08;;;;;;;19.15;17.08;;;2.30;99.90;;;;;;7365356;19;20022;-73
2024/01/06 11:40:36;;;;;;;20.15;15.32;;;2.30;99.90;;;;;;7367456;19;20099;-73
2024/01/06 11:43:09;;;;;;;17.17;14.98;;;2.30;99.90;;;;;;7372482;19;20031;-74
2024/01/06 11:45:41;;;;;;;22.88;18.42;;;2.20;99.90;;;;;;7367917;19;20022;-73
2024/01/06 11:48:10;;;;;;;20.38;16.77;;;2.20;99.90;;;;;;7365843;19;20017;-74
2024/01/06 11:50:56;;;;;;;18.42;15.88;;;2.20;99.90;;;;;;7369091;19;20427;-65
2024/01/06 11:53:26;;;;;;;20.92;17.77;;;2.20;99.90;;;;;;7369704;19;20015;-62
2024/01/06 11:55:52;;;;;;;30.42;24.25;;;2.20;99.90;;;;;;7369269;19;20044;-63
2024/01/06 11:58:19;;;;;;;20.00;16.98;;;2.20;99.90;;;;;;7367691;19;20018;-62
2024/01/06 12:00:56;;;;;;;35.90;28.20;;;2.20;99.90;;;;;;7368513;19;20022;-62
2024/01/06 12:03:23;;;;;;;23.27;19.30;;;2.30;99.90;;;;;;7371697;19;20038;-72
2024/01/06 12:06:07;;;;;;;19.60;17.08;;;2.30;99.90;;;;;;7370024;19;20347;-72
2024/01/06 12:08:33;;;;;;;21.15;17.55;;;2.30;99.90;;;;;;7368669;19;20014;-72
2024/01/06 12:11:04;;;;;;;22.35;18.88;;;2.20;99.90;;;;;;7370619;19;20026;-72
2024/01/06 12:13:32;;;;;;;25.55;19.75;;;2.20;99.90;;;;;;7368315;19;20093;-72
2024/01/06 12:15:59;;;;;;;20.02;16.73;;;2.20;99.90;;;;;;7373047;19;20014;-73
2024/01/06 12:18:25;;;;;;;41.72;31.08;;;2.20;99.90;;;;;;7371673;19;20021;-72
2024/01/06 12:20:53;;;;;;;23.35;20.85;;;2.10;99.90;;;;;;7370781;19;20382;-72
2024/01/06 12:23:28;;;;;;;34.45;27.60;;;2.20;99.90;;;;;;7369923;19;20021;-72
2024/01/06 12:25:56;;;;;;;24.05;19.95;;;2.20;99.90;;;;;;7369543;19;20022;-72
2024/01/06 12:28:50;;;;;;;20.92;17.30;;;2.10;99.90;;;;;;7367619;19;20674;-72
2024/01/06 12:31:18;;;;;;;23.88;19.52;;;2.20;99.90;;;;;;7367646;19;20018;-73
2024/01/06 12:34:07;;;;;;;49.58;37.42;;;2.20;99.90;;;;;;7367615;19;20022;-72
2024/01/06 12:36:38;;;;;;;31.00;24.33;;;2.20;99.90;;;;;;7367505;19;20026;-72
2024/01/06 12:39:05;;;;;;;23.27;17.87;;;2.20;99.90;;;;;;7366534;19;20049;-72
2024/01/06 12:41:34;;;;;;;25.60;21.52;;;2.20;99.90;;;;;;7367612;19;20399;-74